Welcome, MN (56181)

5:44 PM CST on February 08, 2016 (GMT -0600)
FudgeHome | | Change Station
CLOSE
Current Station
Personal Weather Station
Location: Fairmont, MN
Elevation: 1178 ft
Nearby Weather Stations
Active Advisory: Blizzard Warning Active Notice: Local Storm Report

Elev 1178 ft 43.67 °N, 94.47 °W | Updated 11 minutes ago

Snow
Snow
15.1 °F
Feels Like 0 °F
N
15.5
Wind Variable Wind from West

Today
High -- | Low -- °F
--% Chance of Precip.
Yesterday
High -- | Low -- °F
Precip. -- in
Pressure 29.99 in
Visibility 10.0 miles
Clouds Overcast 2900 ft
Windchill 0 °F
Dew Point 11 °F
Humidity 84%
Rainfall 0.00 in
Snow Depth Not available.
7:27 AM 5:38 PM
New Moon, 0% visible
METAR KFRM 082335Z AUTO 30026G34KT 10SM OVC029 M08/M14 A2999 RMK AO1
Pressure 29.99 in
Visibility 10.0 miles
Clouds Overcast 2900 ft
Windchill 0 °F
Dew Point 11 °F
Humidity 84%
Rainfall 0.00 in
Snow Depth Not available.
7:27 AM 5:38 PM
New Moon, 0% visible
METAR KFRM 082335Z AUTO 30026G34KT 10SM OVC029 M08/M14 A2999 RMK AO1

10-Day Weather Forecast

Almanac

Astronomy

Feb. 08, 2016 Rise Set
Actual Time
Civil Twilight
Nautical Twilight
Astronomical Twilight
Moon
Length of Visible Light
Length of Day
Tomorrow will be .
, % of the Moon is Illuminated

Today's Extremes

State Highs State Lows

Community

WunderPhotos

Upload Photos

1,891,527 photos uploaded!

WunderBlog® & News

Nearby

Air Quality

  Air Quality AQ Index Pollutant
Not available.

Snow Depth

Station Depth Elevation

Earthquake Activity

City Distance Mag. Time & Date
Minimum magnitude displayed is 2.5.

Coastal Water Temperatures

Place Temperature

Stations

Nearby Weather Stations

Station Location Temp. Windchill Dew Point Humidity Wind Precip. Elev Updated Type
                   

Watches & Warnings

Blizzard Warning
Issued: 3:47 PM CST Feb. 8, 2016 – National Weather Service

... Blizzard Warning remains in effect until 6 PM CST this
evening...

* conditions slowly improving through 6 PM.

* Winds gusting as high as 45 mph will cause occasional whiteout
conditions in blowing snow.

* Travel will be difficult through the afternoon.

Precautionary/preparedness actions...

A Blizzard Warning means falling and blowing snow with strong
winds and poor visibilities will lead to whiteout conditions...
making travel extremely dangerous. If you must travel... have a
winter survival kit with you. If you get stranded... stay with
your vehicle. The latest Road conditions for the state you are
calling from can be obtained by calling 5 1 1.